Artesia ASC Data

Date Time Air Temperature Relative Humidity Dewpoint Windchill Heat Index Wind Speed Wind Dir. Rain Solar Radiation Soil Temperature
2m 2m 3m 3m 10cm
US/Mountain F % F F F MPH deg in MJ/m^2 F
max avg avg
2020-09-16 00:05:00 63.8 65.1 51.8 63.8 63.8 3.1 3.3 3.0 117.4 122.5 0.00 0.0000000 76.5
2020-09-16 00:10:00 63.8 66.4 52.4 63.8 63.8 4.4 4.6 3.6 115.7 117.0 0.00 0.0000000 76.4
2020-09-16 00:15:00 64.1 66.6 52.8 64.1 64.1 3.0 4.7 4.0 115.3 114.9 0.00 0.0000000 76.4
2020-09-16 00:20:00 63.9 66.6 52.6 63.9 63.9 2.1 3.1 2.3 111.0 125.2 0.00 0.0000000 76.3
2020-09-16 00:25:00 63.6 68.0 52.8 63.6 63.6 2.6 3.7 2.9 104.7 109.7 0.00 0.0000000 76.3
2020-09-16 00:30:00 63.5 67.1 52.4 63.5 63.5 1.9 2.8 1.9 166.8 144.7 0.00 0.0000000 76.2
2020-09-16 00:35:00 63.4 65.6 51.7 63.4 63.4 2.6 3.0 2.4 121.7 134.1 0.00 0.0000000 76.2
2020-09-16 00:40:00 63.4 65.5 51.6 63.4 63.4 2.6 3.0 2.4 159.8 154.1 0.00 0.0000000 76.2
2020-09-16 00:45:00 63.5 65.1 51.6 63.5 63.5 1.5 2.6 1.9 193.7 173.5 0.00 0.0000000 76.1
2020-09-16 00:50:00 62.4 63.2 49.7 62.4 62.4 1.9 2.4 1.9 239.5 234.4 0.00 0.0000000 76.1
2020-09-16 00:55:00 62.2 64.8 50.2 62.2 62.2 1.7 2.1 1.8 216.7 229.5 0.00 0.0000000 76.0
2020-09-16 01:00:00 62.5 65.5 50.8 62.5 62.5 1.2 1.9 1.6 198.3 213.8 0.00 0.0000000 76.0
2020-09-16 01:05:00 63.0 65.4 51.2 63.0 63.0 0.0 1.3 0.7 195.5 206.9 0.00 0.0000000 75.9
2020-09-16 01:10:00 63.3 65.2 51.4 63.3 63.3 1.5 1.5 0.3 157.9 166.6 0.00 0.0000000 75.9
2020-09-16 01:15:00 63.1 64.8 51.1 63.1 63.1 1.7 1.9 1.6 172.0 158.0 0.00 0.0000000 75.9
2020-09-16 01:20:00 62.2 63.2 49.5 62.2 62.2 3.1 3.3 1.8 281.3 227.0 0.00 0.0000000 75.8
2020-09-16 01:25:00 60.8 68.1 50.2 60.8 60.8 1.9 3.3 2.8 267.3 273.6 0.00 0.0000000 75.8
2020-09-16 01:30:00 60.1 69.4 50.1 60.1 60.1 2.1 2.2 1.9 267.8 266.0 0.00 0.0000000 75.7
2020-09-16 01:35:00 59.9 70.8 50.4 59.9 59.9 1.7 2.1 1.7 235.2 253.5 0.00 0.0000000 75.7
2020-09-16 01:40:00 60.2 70.2 50.4 60.2 60.2 1.9 2.2 1.9 225.2 228.7 0.00 0.0000000 75.6
2020-09-16 01:45:00 60.5 68.9 50.2 60.5 60.5 2.4 2.6 2.1 230.8 229.3 0.00 0.0000000 75.6
2020-09-16 01:50:00 60.3 66.6 49.2 60.3 60.3 1.9 2.6 2.2 278.1 242.6 0.00 0.0000000 75.5
2020-09-16 01:55:00 59.8 68.8 49.5 59.8 59.8 2.2 2.8 2.4 264.2 257.3 0.00 0.0000000 75.5
2020-09-16 02:00:00 60.2 69.4 50.2 60.2 60.2 2.1 2.2 2.0 251.1 257.2 0.00 0.0000000 75.5
2020-09-16 02:05:00 60.1 70.3 50.4 60.1 60.1 3.5 3.8 2.9 285.1 272.3 0.00 0.0000000 75.4
2020-09-16 02:10:00 60.0 70.4 50.3 60.0 60.0 2.2 4.2 3.3 260.8 272.5 0.00 0.0000000 75.3
2020-09-16 02:15:00 59.1 72.2 50.2 59.1 59.1 2.4 2.6 2.4 250.0 246.0 0.00 0.0000000 75.3
2020-09-16 02:20:00 58.8 72.5 50.0 58.8 58.8 2.6 2.6 2.1 272.4 270.7 0.00 0.0000000 75.2
2020-09-16 02:25:00 58.4 72.1 49.5 58.4 58.4 3.0 3.1 2.8 238.5 253.8 0.00 0.0000000 75.2
2020-09-16 02:30:00 58.9 72.5 50.1 58.9 58.9 2.2 3.1 2.5 243.5 231.0 0.00 0.0000000 75.1
2020-09-16 02:35:00 58.7 69.9 48.9 58.7 58.7 2.4 2.4 2.0 286.5 273.0 0.00 0.0000000 75.1
2020-09-16 02:40:00 58.5 71.7 49.4 58.5 58.5 2.4 3.5 2.9 264.5 271.6 0.00 0.0000000 75.1
2020-09-16 02:45:00 58.4 70.9 49.0 58.4 58.4 2.6 2.8 2.4 259.4 259.8 0.00 0.0000000 75.0
2020-09-16 02:50:00 58.4 73.0 49.8 58.4 58.4 3.0 3.5 2.9 275.7 266.7 0.00 0.0000000 74.9
2020-09-16 02:55:00 58.3 71.9 49.2 58.3 58.3 2.1 3.1 2.8 286.2 276.1 0.00 0.0000000 74.9
2020-09-16 03:00:00 58.7 70.9 49.3 58.7 58.7 3.1 3.3 2.5 287.9 289.4 0.00 0.0000000 74.9
2020-09-16 03:05:00 58.9 69.5 48.9 58.9 58.9 2.6 3.5 2.9 272.5 285.3 0.00 0.0000000 74.8
2020-09-16 03:10:00 58.4 70.9 49.0 58.4 58.4 3.3 4.0 3.1 280.4 274.0 0.00 0.0000000 74.8
2020-09-16 03:15:00 58.4 71.3 49.2 58.4 58.4 2.4 3.5 2.6 292.4 290.9 0.00 0.0000000 74.7
2020-09-16 03:20:00 58.4 71.0 49.0 58.4 58.4 1.7 3.0 2.6 269.4 283.0 0.00 0.0000000 74.7
2020-09-16 03:25:00 58.6 72.1 49.6 58.6 58.6 3.0 3.0 1.9 269.2 264.4 0.00 0.0000000 74.6
2020-09-16 03:30:00 57.5 72.9 48.9 57.5 57.5 1.9 3.0 2.4 260.6 265.6 0.00 0.0000000 74.6
2020-09-16 03:35:00 57.5 75.1 49.7 57.5 57.5 1.9 3.0 2.1 213.5 230.9 0.00 0.0000000 74.5
2020-09-16 03:40:00 57.5 75.5 49.8 57.5 57.5 1.3 3.0 2.0 242.5 214.1 0.00 0.0000000 74.5
2020-09-16 03:45:00 56.9 74.3 48.8 56.9 56.9 1.0 2.8 1.5 208.4 225.3 0.00 0.0000000 74.5
2020-09-16 03:50:00 57.3 74.8 49.4 57.3 57.3 0.8 1.3 0.8 240.5 188.0 0.00 0.0000000 74.4
2020-09-16 03:55:00 57.2 73.9 48.9 57.2 57.2 1.9 2.1 1.7 240.7 258.3 0.00 0.0000000 74.4
2020-09-16 04:00:00 57.0 73.6 48.7 57.0 57.0 1.9 2.1 1.3 222.5 235.2 0.00 0.0000000 74.3
2020-09-16 04:05:00 57.5 72.7 48.8 57.5 57.5 0.0 1.9 0.8 235.1 215.7 0.00 0.0000000 74.3
2020-09-16 04:10:00 57.4 73.8 49.1 57.4 57.4 1.2 1.7 0.9 167.5 195.2 0.00 0.0000000 74.2
2020-09-16 04:15:00 57.6 72.5 48.8 57.6 57.6 1.9 1.9 0.9 193.2 176.3 0.00 0.0000000 74.2
2020-09-16 04:20:00 57.3 72.6 48.6 57.3 57.3 2.4 2.4 1.8 242.3 218.0 0.00 0.0000000 74.2
2020-09-16 04:25:00 56.5 69.9 46.8 56.5 56.5 2.2 2.4 1.8 251.5 263.4 0.00 0.0000000 74.1
2020-09-16 04:30:00 56.1 71.3 46.9 56.1 56.1 2.4 2.6 2.2 260.2 252.2 0.00 0.0000000 74.1
2020-09-16 04:35:00 56.1 71.8 47.1 56.1 56.1 1.5 2.4 2.1 265.1 267.5 0.00 0.0000000 74.0
2020-09-16 04:40:00 56.2 72.4 47.4 56.2 56.2 1.9 2.8 2.2 274.3 276.2 0.00 0.0000000 74.0
2020-09-16 04:45:00 56.2 73.2 47.8 56.2 56.2 2.2 2.2 2.0 268.8 268.0 0.00 0.0000000 73.9
2020-09-16 04:50:00 56.1 74.5 48.1 56.1 56.1 1.9 2.6 1.9 241.7 260.8 0.00 0.0000000 73.9
2020-09-16 04:55:00 56.2 73.9 48.0 56.2 56.2 2.6 2.6 2.4 294.7 279.7 0.00 0.0000000 73.9
2020-09-16 05:00:00 56.1 74.2 48.0 56.1 56.1 3.5 3.5 2.8 285.5 289.2 0.00 0.0000000 73.8
2020-09-16 05:05:00 55.9 73.8 47.7 55.9 55.9 3.0 3.5 2.8 263.4 271.2 0.00 0.0000000 73.8
2020-09-16 05:10:00 55.6 74.6 47.7 55.6 55.6 2.2 2.8 2.3 283.4 268.1 0.00 0.0000000 73.7
2020-09-16 05:15:00 55.5 74.9 47.6 55.5 55.5 2.2 2.2 1.9 273.2 269.5 0.00 0.0000000 73.7
2020-09-16 05:20:00 55.6 75.6 48.0 55.6 55.6 2.6 2.8 2.5 263.2 273.2 0.00 0.0000000 73.6
2020-09-16 05:25:00 55.5 76.1 48.0 55.5 55.5 2.8 3.1 2.6 277.9 268.5 0.00 0.0000000 73.6
2020-09-16 05:30:00 55.4 76.7 48.2 55.4 55.4 1.9 3.0 2.2 301.1 281.9 0.00 0.0000000 73.6
2020-09-16 05:35:00 55.5 76.7 48.3 55.5 55.5 2.2 2.6 2.4 286.9 285.9 0.00 0.0000000 73.5
2020-09-16 05:40:00 55.6 76.7 48.4 55.6 55.6 2.4 2.6 2.2 266.3 283.3 0.00 0.0000000 73.5
2020-09-16 05:45:00 55.7 76.7 48.5 55.7 55.7 2.6 2.6 2.2 269.4 284.0 0.00 0.0000000 73.4
2020-09-16 05:50:00 55.6 77.0 48.5 55.6 55.6 2.6 2.6 1.7 272.0 285.5 0.00 0.0000000 73.4
2020-09-16 05:55:00 55.6 76.5 48.3 55.6 55.6 0.0 2.8 1.6 271.2 292.1 0.00 0.0000000 73.3
2020-09-16 06:00:00 55.8 76.5 48.5 55.8 55.8 1.5 1.7 1.1 258.7 271.8 0.00 0.0000000 73.3
2020-09-16 06:05:00 55.4 77.2 48.4 55.4 55.4 2.2 2.4 2.1 272.0 266.9 0.00 0.0000000 73.3
2020-09-16 06:10:00 55.1 76.9 48.0 55.1 55.1 3.7 3.7 2.3 278.3 264.0 0.00 0.0000000 73.2
2020-09-16 06:15:00 54.7 76.8 47.5 54.7 54.7 3.3 3.8 2.8 254.5 270.8 0.00 0.0000000 73.2
2020-09-16 06:20:00 54.1 77.2 47.1 54.1 54.1 3.1 3.3 2.8 261.6 261.8 0.00 0.0000000 73.2
2020-09-16 06:25:00 53.8 78.7 47.3 53.8 53.8 2.8 3.1 2.9 276.1 274.0 0.00 0.0000000 73.1
2020-09-16 06:30:00 53.8 79.2 47.5 53.8 53.8 2.6 3.1 2.8 291.3 284.3 0.00 0.0010000 73.1
2020-09-16 06:35:00 53.8 79.8 47.7 53.8 53.8 1.5 2.8 2.2 315.4 297.3 0.00 0.0010000 73.1
2020-09-16 06:40:00 54.8 78.8 48.3 54.8 54.8 2.4 2.8 2.1 320.7 318.6 0.00 0.0030000 73.0
2020-09-16 06:45:00 55.3 75.1 47.5 55.3 55.3 2.1 2.6 2.3 294.6 313.0 0.00 0.0040000 73.0
2020-09-16 06:50:00 55.0 74.8 47.1 55.0 55.0 2.8 3.0 2.4 286.1 283.8 0.00 0.0070000 72.9
2020-09-16 06:55:00 54.2 75.5 46.7 54.2 54.2 2.2 2.8 2.5 303.8 296.8 0.00 0.0100000 72.9
2020-09-16 07:00:00 54.2 76.1 46.8 54.2 54.2 2.8 3.0 2.5 285.7 282.3 0.00 0.0140000 72.9
2020-09-16 07:05:00 54.2 74.7 46.3 54.2 54.2 2.1 2.8 2.2 267.7 273.7 0.00 0.0200000 72.8
2020-09-16 07:10:00 54.3 74.4 46.3 54.3 54.3 2.2 2.6 2.3 273.3 265.2 0.00 0.0290000 72.8
2020-09-16 07:15:00 54.3 75.2 46.6 54.3 54.3 1.9 2.6 2.1 269.8 266.1 0.00 0.0430000 72.8
2020-09-16 07:20:00 54.6 74.7 46.7 54.6 54.6 2.8 3.0 2.0 310.9 295.5 0.00 0.0570000 72.7
2020-09-16 07:25:00 55.6 75.7 48.0 55.6 55.6 2.8 3.7 2.9 304.8 307.8 0.00 0.0740000 72.7
2020-09-16 07:30:00 56.7 73.7 48.4 56.7 56.7 2.2 2.6 2.3 306.2 307.3 0.00 0.0920000 72.6
2020-09-16 07:35:00 57.6 75.3 49.9 57.6 57.6 2.1 2.4 2.2 278.3 292.2 0.00 0.1120000 72.6
2020-09-16 07:40:00 58.8 71.5 49.6 58.8 58.8 2.8 3.1 2.7 273.3 278.6 0.00 0.1300000 72.6
2020-09-16 07:45:00 60.2 69.3 50.1 60.2 60.2 0.8 2.6 1.3 289.4 280.6 0.00 0.1480000 72.5
2020-09-16 07:50:00 61.5 69.0 51.2 61.5 61.5 2.8 2.8 1.7 305.9 309.7 0.00 0.1630000 72.5
2020-09-16 07:55:00 62.3 66.8 51.1 62.3 62.3 2.2 2.6 2.2 332.2 320.8 0.00 0.1770000 72.5
2020-09-16 08:00:00 63.3 64.7 51.2 63.3 63.3 0.8 2.1 1.4 344.4 346.5 0.00 0.1900000 72.5
2020-09-16 08:05:00 64.6 63.2 51.8 64.6 64.6 0.8 1.2 0.4 8.7 347.6 0.00 0.2050000 72.4
2020-09-16 08:10:00 66.5 61.4 52.8 66.5 66.5 0.0 0.8 0.0 256.0 9.3 0.00 0.2230000 72.4
2020-09-16 08:15:00 68.4 58.9 53.5 68.4 68.4 1.2 1.2 0.1 86.1 86.1 0.00 0.2420000 72.4
2020-09-16 08:20:00 68.8 58.0 53.4 68.8 68.8 0.0 1.7 1.1 148.4 117.3 0.00 0.2600000 72.4
2020-09-16 08:25:00 68.7 58.7 53.6 68.7 68.7 0.0 1.5 0.5 166.3 199.5 0.00 0.2780000 72.4
2020-09-16 08:30:00 70.1 55.5 53.5 70.1 70.1 0.0 0.0 0.0 118.4 0.0 0.00 0.2960000 72.3
2020-09-16 08:35:00 70.1 54.9 53.2 70.1 70.1 1.0 2.4 1.0 113.1 112.6 0.00 0.3120000 72.3
2020-09-16 08:40:00 69.3 56.2 53.0 69.3 69.3 3.0 3.3 2.2 55.6 110.6 0.00 0.3270000 72.3
2020-09-16 08:45:00 68.3 60.8 54.2 68.3 68.3 5.5 6.5 3.8 100.1 97.1 0.00 0.3440000 72.3
2020-09-16 08:50:00 68.1 61.4 54.3 68.1 68.1 5.1 5.8 4.5 95.4 106.5 0.00 0.3560000 72.3
2020-09-16 08:55:00 67.9 62.1 54.5 67.9 67.9 3.8 6.3 5.1 90.5 99.8 0.00 0.3740000 72.3
2020-09-16 09:00:00 67.5 64.7 55.2 67.5 67.5 3.7 5.8 4.3 74.9 94.6 0.00 0.3910000 72.3
2020-09-16 09:05:00 68.1 62.3 54.7 68.1 68.1 4.9 5.1 3.8 101.9 96.3 0.00 0.4100000 72.3
2020-09-16 09:10:00 68.1 63.6 55.2 68.1 68.1 4.4 5.3 4.0 118.4 95.2 0.00 0.4250000 72.3
2020-09-16 09:15:00 69.1 61.9 55.5 69.1 69.1 2.6 5.5 3.8 84.7 102.2 0.00 0.4410000 72.3
2020-09-16 09:20:00 68.8 60.7 54.7 68.8 68.8 2.4 5.5 3.8 133.3 125.2 0.00 0.4570000 72.3
2020-09-16 09:25:00 70.4 58.2 55.0 70.4 70.4 1.7 4.2 2.6 79.7 106.5 0.00 0.4740000 72.3
2020-09-16 09:30:00 71.3 55.1 54.3 71.3 71.3 1.9 3.5 2.1 70.7 59.0 0.00 0.4900000 72.3
2020-09-16 09:35:00 72.9 53.6 55.0 72.9 72.9 4.2 4.6 1.7 104.0 66.6 0.00 0.5060000 72.3
2020-09-16 09:40:00 72.3 49.7 52.4 72.3 72.3 3.5 4.6 3.1 102.3 68.7 0.00 0.5200000 72.3
2020-09-16 09:45:00 73.1 49.5 53.1 73.1 73.1 3.7 4.4 2.9 48.7 58.4 0.00 0.5370000 72.4
2020-09-16 09:50:00 73.5 49.5 53.5 73.5 73.5 1.7 5.1 2.9 74.8 51.7 0.00 0.5520000 72.4
2020-09-16 09:55:00 74.8 46.4 52.8 74.8 74.8 2.8 4.0 2.6 38.3 49.9 0.00 0.5620000 72.4
2020-09-16 10:00:00 75.1 44.7 52.1 75.1 75.1 5.8 5.8 3.8 70.5 74.4 0.00 0.5750000 72.5
2020-09-16 10:05:00 75.4 44.5 52.3 75.4 75.4 1.3 5.5 3.4 100.5 28.6 0.00 0.5910000 72.5
2020-09-16 10:10:00 75.9 43.2 51.9 75.9 75.9 1.3 5.1 2.1 24.2 27.6 0.00 0.6050000 72.5
2020-09-16 10:15:00 77.0 41.9 52.1 77.0 77.0 3.5 6.3 3.3 344.1 23.0 0.00 0.6170000 72.6
2020-09-16 10:20:00 75.6 42.6 51.3 75.6 75.6 3.8 6.3 3.7 340.4 335.5 0.00 0.6280000 72.6
2020-09-16 10:25:00 75.8 42.0 51.1 75.8 75.8 4.4 7.2 5.0 8.3 335.9 0.00 0.6390000 72.6
2020-09-16 10:30:00 76.5 41.9 51.7 76.5 76.5 5.1 6.2 4.1 348.3 335.7 0.00 0.6530000 72.7
2020-09-16 10:35:00 77.0 43.9 53.4 77.0 77.0 1.7 5.3 3.3 341.4 30.0 0.00 0.6630000 72.7
2020-09-16 10:40:00 78.2 40.3 52.1 78.2 78.2 6.5 7.4 3.4 341.1 340.6 0.00 0.6750000 72.7
2020-09-16 10:45:00 78.1 37.6 50.1 78.1 78.1 2.6 4.7 1.8 69.5 5.3 0.00 0.6850000 72.8
2020-09-16 10:50:00 77.6 39.0 50.7 77.6 77.6 5.8 6.9 3.5 75.8 87.7 0.00 0.6960000 72.8
2020-09-16 10:55:00 77.7 39.2 51.0 77.7 77.7 5.1 5.6 4.3 24.5 57.4 0.00 0.7040000 72.9
2020-09-16 11:00:00 77.1 39.1 50.3 77.1 77.1 3.0 4.9 3.5 74.6 85.5 0.00 0.7100000 72.9
2020-09-16 11:05:00 79.1 38.7 51.8 79.1 79.1 4.6 4.9 3.7 55.2 51.0 0.00 0.7130000 73.0
2020-09-16 11:10:00 79.6 39.5 52.8 79.6 79.6 1.2 6.7 3.3 162.1 17.8 0.00 0.7270000 73.0
2020-09-16 11:15:00 79.6 36.4 50.6 79.6 79.6 3.8 7.4 4.5 45.2 70.7 0.00 0.7360000 73.1
2020-09-16 11:20:00 79.7 36.3 50.7 79.7 79.7 6.7 7.8 3.8 122.2 101.4 0.00 0.7440000 73.1
2020-09-16 11:25:00 79.3 37.6 51.2 79.3 79.3 5.5 8.3 6.0 100.9 124.6 0.00 0.7500000 73.2
2020-09-16 11:30:00 78.6 34.3 48.1 78.6 78.6 3.8 4.9 3.7 215.7 164.5 0.00 0.7570000 73.3
2020-09-16 11:35:00 81.1 34.5 50.5 81.1 81.1 6.3 7.2 4.9 117.0 138.7 0.00 0.7630000 73.3
2020-09-16 11:40:00 80.9 31.7 48.1 80.9 80.9 3.0 6.7 4.8 123.0 108.6 0.00 0.7690000 73.4
2020-09-16 11:45:00 80.9 33.2 49.3 80.9 80.9 5.8 7.1 4.6 113.6 149.0 0.00 0.7760000 73.5
2020-09-16 11:50:00 79.7 31.1 46.5 79.7 79.7 4.0 7.1 5.7 127.1 133.7 0.00 0.7680000 73.5
2020-09-16 11:55:00 81.4 30.7 47.7 81.4 81.4 4.0 6.2 4.9 151.1 135.1 0.00 0.7900000 73.6
2020-09-16 12:00:00 81.6 29.1 46.3 81.6 81.6 3.8 5.5 3.9 227.2 168.6 0.00 0.7870000 73.7
2020-09-16 12:05:00 82.2 28.3 46.1 82.2 82.2 5.1 8.0 4.8 113.8 136.0 0.00 0.7990000 73.8
2020-09-16 12:10:00 82.0 28.5 46.2 82.0 82.0 2.4 5.5 3.3 76.8 136.0 0.00 0.8040000 73.9
2020-09-16 12:15:00 82.8 28.6 46.9 82.8 82.8 6.0 6.7 5.2 159.1 139.8 0.00 0.8040000 74.0
2020-09-16 12:20:00 83.5 29.0 47.9 83.5 83.5 4.0 6.5 4.3 151.7 165.6 0.00 0.8100000 74.1
2020-09-16 12:25:00 83.8 27.5 46.8 83.8 83.8 3.0 5.1 3.5 130.6 163.0 0.00 0.8150000 74.2
2020-09-16 12:30:00 84.7 27.5 47.5 84.7 84.7 4.4 5.3 2.8 22.9 60.5 0.00 0.8190000 74.3
2020-09-16 12:35:00 83.7 27.2 46.4 83.7 83.7 2.4 6.2 3.7 122.5 94.3 0.00 0.8210000 74.4
2020-09-16 12:40:00 83.8 27.8 47.0 83.8 83.8 1.7 7.1 4.4 177.0 98.2 0.00 0.8170000 74.5
2020-09-16 12:45:00 84.8 28.2 48.3 84.8 84.8 1.9 5.3 2.6 135.7 100.5 0.00 0.8180000 74.7
2020-09-16 12:50:00 84.9 26.0 46.2 84.9 84.9 2.2 5.6 3.4 80.1 88.6 0.00 0.8240000 74.8
2020-09-16 12:55:00 84.9 26.5 46.7 84.9 84.9 2.8 4.7 3.5 2.6 50.6 0.00 0.8210000 74.9
2020-09-16 13:00:00 84.7 27.2 47.2 84.7 84.7 5.5 6.3 4.2 125.5 9.9 0.00 0.8210000 75.0
2020-09-16 13:05:00 85.1 26.8 47.2 85.1 85.1 3.0 5.8 4.2 150.0 133.5 0.00 0.8230000 75.1
2020-09-16 13:10:00 85.6 26.1 46.9 85.6 85.6 2.2 6.5 4.2 243.1 179.6 0.00 0.8210000 75.3
2020-09-16 13:15:00 84.1 23.7 43.1 84.1 84.1 5.3 6.2 4.0 156.4 119.1 0.00 0.8180000 75.4
2020-09-16 13:20:00 85.9 23.4 44.2 85.9 85.9 4.7 6.3 4.4 143.9 142.3 0.00 0.8160000 75.6
2020-09-16 13:25:00 86.6 23.3 44.7 86.6 86.6 2.6 3.8 2.8 10.7 23.2 0.00 0.8140000 75.7
2020-09-16 13:30:00 87.4 24.1 46.3 87.4 87.4 6.2 7.1 4.3 115.1 99.8 0.00 0.8150000 75.8
2020-09-16 13:35:00 86.5 24.4 45.9 86.5 86.5 1.3 6.9 4.1 146.1 126.6 0.00 0.8090000 75.9
2020-09-16 13:40:00 86.6 22.0 43.3 86.6 86.6 5.8 7.1 4.9 113.7 147.6 0.00 0.8090000 76.0
2020-09-16 13:45:00 87.0 22.7 44.3 87.0 87.0 1.7 6.3 3.9 179.7 95.1 0.00 0.8080000 76.2
2020-09-16 13:50:00 87.1 21.7 43.3 87.1 87.1 1.9 5.1 2.9 100.2 137.4 0.00 0.8010000 76.3
2020-09-16 13:55:00 88.6 19.9 42.3 88.6 88.6 4.6 6.5 3.5 333.6 47.7 0.00 0.7970000 76.4
2020-09-16 14:00:00 88.1 20.9 43.1 88.1 88.1 4.2 7.8 5.3 320.1 344.5 0.00 0.7900000 76.5
2020-09-16 14:05:00 88.3 20.3 42.5 88.3 88.3 3.8 6.5 3.3 216.6 285.7 0.00 0.7850000 76.6
2020-09-16 14:10:00 89.6 21.2 44.7 89.6 89.6 5.3 6.3 3.6 285.5 262.9 0.00 0.7770000 76.7
2020-09-16 14:15:00 89.7 18.6 41.4 89.7 89.7 3.0 5.8 2.2 47.4 319.7 0.00 0.7670000 76.9
2020-09-16 14:20:00 90.6 20.2 44.4 90.6 90.6 3.0 4.2 2.7 132.5 77.2 0.00 0.7630000 76.9
2020-09-16 14:25:00 88.4 20.4 42.8 88.4 88.4 5.8 7.6 5.4 158.5 147.0 0.00 0.7610000 77.0
2020-09-16 14:30:00 87.5 22.1 44.2 87.5 87.5 2.6 5.6 3.5 98.8 90.5 0.00 0.7390000 77.2
2020-09-16 14:35:00 87.9 21.2 43.3 87.9 87.9 4.2 11.0 6.3 121.9 121.7 0.00 0.7330000 77.3
2020-09-16 14:40:00 88.7 22.3 45.4 88.7 88.7 4.7 4.7 2.5 96.7 128.4 0.00 0.7330000 77.4
2020-09-16 14:45:00 88.2 20.7 43.0 88.2 88.2 3.0 7.1 4.7 112.6 126.3 0.00 0.7210000 77.4
2020-09-16 14:50:00 87.7 20.7 42.6 87.7 87.7 3.0 5.8 4.3 163.2 144.6 0.00 0.7040000 77.5
2020-09-16 14:55:00 88.3 22.2 44.9 88.3 88.3 3.5 6.7 3.4 79.6 144.1 0.00 0.7050000 77.6
2020-09-16 15:00:00 88.2 21.8 44.3 88.2 88.2 5.3 8.8 6.5 127.4 114.3 0.00 0.6760000 77.7
2020-09-16 15:05:00 88.2 21.4 43.8 88.2 88.2 2.6 6.2 3.6 266.1 160.8 0.00 0.6640000 77.8
2020-09-16 15:10:00 89.9 21.3 45.1 89.9 89.9 2.1 4.4 2.5 164.0 193.0 0.00 0.6790000 77.9
2020-09-16 15:15:00 89.1 18.9 41.4 89.1 89.1 5.1 8.8 5.8 245.8 270.2 0.00 0.6700000 78.0
2020-09-16 15:20:00 88.8 18.0 39.8 88.8 88.8 6.0 6.2 4.2 11.7 344.7 0.00 0.6590000 78.0
2020-09-16 15:25:00 89.2 18.9 41.5 89.2 89.2 4.2 10.3 6.1 331.8 20.3 0.00 0.6540000 78.1
2020-09-16 15:30:00 88.6 17.3 38.7 88.6 88.6 4.4 7.1 4.8 76.1 35.4 0.00 0.6350000 78.2
2020-09-16 15:35:00 88.0 18.4 39.8 88.0 88.0 3.5 5.1 3.9 135.2 112.0 0.00 0.6170000 78.2
2020-09-16 15:40:00 89.7 20.6 44.2 89.7 89.7 8.0 12.2 5.9 10.0 34.0 0.00 0.5990000 78.3
2020-09-16 15:45:00 88.8 21.0 43.8 88.8 88.8 7.2 12.2 8.5 309.0 322.5 0.00 0.5820000 78.4
2020-09-16 15:50:00 88.8 19.5 41.9 88.8 88.8 5.5 10.3 6.4 311.3 326.3 0.00 0.5660000 78.4
2020-09-16 15:55:00 89.3 18.9 41.5 89.3 89.3 7.2 9.2 5.4 320.2 303.4 0.00 0.5540000 78.5
2020-09-16 16:00:00 89.7 16.6 38.5 89.7 89.7 4.6 7.8 6.1 7.1 357.3 0.00 0.5440000 78.6
2020-09-16 16:05:00 89.4 15.9 37.1 89.4 89.4 7.4 9.2 6.7 28.2 353.5 0.00 0.5410000 78.6
2020-09-16 16:10:00 89.2 16.7 38.2 89.2 89.2 3.8 9.4 5.5 11.3 351.4 0.00 0.5320000 78.7
2020-09-16 16:15:00 90.0 17.4 40.0 90.0 90.0 1.2 5.5 2.8 140.8 9.4 0.00 0.5290000 78.7
2020-09-16 16:20:00 90.7 15.4 37.4 90.7 90.7 2.1 4.2 2.3 7.7 48.4 0.00 0.5300000 78.7
2020-09-16 16:25:00 90.8 17.5 40.8 90.8 90.8 4.9 4.9 2.3 299.8 69.8 0.00 0.5140000 78.8
2020-09-16 16:30:00 89.9 15.2 36.5 89.9 89.9 3.8 6.0 4.9 51.0 3.6 0.00 0.4940000 78.8
2020-09-16 16:35:00 90.8 12.1 31.4 90.8 90.8 6.7 9.7 5.9 332.1 354.8 0.00 0.4890000 78.9
2020-09-16 16:40:00 90.4 12.4 31.7 90.4 90.4 3.1 8.3 5.3 52.2 346.0 0.00 0.5120000 78.9
2020-09-16 16:45:00 89.9 14.1 34.5 89.9 89.9 4.6 11.3 7.4 342.1 348.3 0.00 0.4320000 78.9
2020-09-16 16:50:00 90.1 13.7 34.0 90.1 90.1 5.1 7.2 4.2 27.2 8.3 0.00 0.5060000 79.0
2020-09-16 16:55:00 87.9 28.6 51.3 87.9 87.9 16.9 16.9 10.8 86.0 87.0 0.00 0.3350000 79.0
2020-09-16 17:00:00 86.5 28.6 50.1 86.5 86.5 17.8 21.0 17.5 112.9 97.1 0.00 0.2960000 79.0
2020-09-16 17:05:00 86.3 28.3 49.6 86.3 86.3 13.7 18.7 15.4 85.3 97.4 0.00 0.3410000 79.1
2020-09-16 17:10:00 85.9 32.0 52.7 85.9 85.9 13.3 18.9 13.7 89.8 95.2 0.00 0.3140000 79.1
2020-09-16 17:15:00 84.2 33.1 52.1 84.2 84.2 14.6 20.8 14.9 90.1 91.5 0.00 0.2720000 79.1
2020-09-16 17:20:00 83.6 33.9 52.2 83.6 83.6 13.9 19.6 15.8 122.7 104.6 0.00 0.0920000 79.1
2020-09-16 17:25:00 83.5 30.2 49.0 83.5 83.5 14.6 18.0 14.7 128.5 115.4 0.00 0.2420000 79.1
2020-09-16 17:30:00 84.5 26.7 46.6 84.5 84.5 14.0 14.6 12.2 115.2 114.8 0.00 0.2280000 79.2
2020-09-16 17:35:00 84.1 25.7 45.2 84.1 84.1 11.2 14.0 11.4 129.3 122.5 0.00 0.2350000 79.2
2020-09-16 17:40:00 84.1 30.5 49.8 84.1 84.1 10.3 12.4 10.5 136.7 124.3 0.00 0.2200000 79.2
2020-09-16 17:45:00 84.1 31.9 51.0 84.1 84.1 11.5 15.6 12.8 115.4 124.3 0.00 0.1960000 79.2
2020-09-16 17:50:00 83.8 31.7 50.5 83.8 83.8 9.7 15.5 11.8 120.5 116.6 0.00 0.1830000 79.3
2020-09-16 17:55:00 83.3 30.0 48.7 83.3 83.3 11.3 13.5 10.9 134.6 125.2 0.00 0.1710000 79.3
2020-09-16 18:00:00 83.4 29.8 48.6 83.4 83.4 11.0 12.1 10.5 126.0 125.6 0.00 0.1630000 79.3
2020-09-16 18:05:00 83.4 28.9 47.8 83.4 83.4 9.6 11.7 9.9 123.4 120.9 0.00 0.1580000 79.3
2020-09-16 18:10:00 83.3 27.8 46.5 83.3 83.3 12.4 12.8 10.4 120.2 123.8 0.00 0.1420000 79.3
2020-09-16 18:15:00 83.6 25.3 44.4 83.6 83.6 11.5 13.5 11.6 132.6 129.0 0.00 0.1290000 79.3
2020-09-16 18:20:00 83.6 25.1 44.2 83.6 83.6 9.7 13.0 10.6 131.3 131.6 0.00 0.1130000 79.3
2020-09-16 18:25:00 83.5 25.2 44.2 83.5 83.5 10.1 11.7 9.6 116.3 128.5 0.00 0.0950000 79.3
2020-09-16 18:30:00 83.4 25.3 44.2 83.4 83.4 7.6 12.8 10.3 123.4 134.1 0.00 0.0700000 79.3
2020-09-16 18:35:00 83.4 25.5 44.4 83.4 83.4 8.1 9.9 7.9 138.4 131.0 0.00 0.0580000 79.3
2020-09-16 18:40:00 82.7 26.1 44.4 82.7 82.7 9.9 11.7 8.6 135.7 132.7 0.00 0.0440000 79.3
2020-09-16 18:45:00 82.2 26.5 44.4 82.2 82.2 9.7 11.2 8.8 133.4 128.3 0.00 0.0320000 79.3
2020-09-16 18:50:00 81.6 27.0 44.4 81.6 81.6 6.5 9.4 7.4 119.6 131.7 0.00 0.0190000 79.3
2020-09-16 18:55:00 80.8 31.2 47.5 80.8 80.8 6.3 8.8 7.2 114.9 117.9 0.00 0.0100000 79.3
2020-09-16 19:00:00 79.1 32.6 47.3 79.1 79.1 9.9 9.9 7.2 104.0 102.6 0.00 0.0040000 79.3
2020-09-16 19:05:00 78.9 32.6 47.0 78.9 78.9 8.3 10.6 8.4 97.1 94.1 0.00 0.0020000 79.2
2020-09-16 19:10:00 79.0 35.0 49.0 79.0 79.0 14.2 17.6 11.3 106.9 91.7 0.00 0.0010000 79.2
2020-09-16 19:15:00 78.7 33.5 47.6 78.7 78.7 14.7 20.5 15.8 100.2 99.7 0.00 0.0010000 79.2
2020-09-16 19:20:00 77.4 35.1 47.7 77.4 77.4 11.7 16.5 13.7 97.9 100.5 0.00 0.0000000 79.2
2020-09-16 19:25:00 76.7 35.4 47.3 76.7 76.7 14.0 17.4 13.2 104.3 99.1 0.00 0.0000000 79.2
2020-09-16 19:30:00 76.2 36.8 47.9 76.2 76.2 11.5 16.4 12.1 124.1 102.4 0.00 0.0000000 79.2
2020-09-16 19:35:00 76.1 37.4 48.2 76.1 76.1 12.8 16.0 12.5 101.5 104.4 0.00 0.0000000 79.1
2020-09-16 19:40:00 75.7 38.1 48.3 75.7 75.7 12.4 14.7 12.2 101.9 104.5 0.00 0.0000000 79.1
2020-09-16 19:45:00 75.7 38.0 48.3 75.7 75.7 11.2 16.0 12.8 101.3 103.3 0.00 0.0000000 79.1
2020-09-16 19:50:00 75.4 38.2 48.1 75.4 75.4 11.7 14.7 11.5 112.4 104.9 0.00 0.0000000 79.1
2020-09-16 19:55:00 75.2 39.9 49.1 75.2 75.2 8.5 12.2 9.0 100.6 103.3 0.00 0.0000000 79.0
2020-09-16 20:00:00 74.8 39.7 48.7 74.8 74.8 12.2 12.6 10.7 103.8 101.9 0.00 0.0000000 79.0
2020-09-16 20:05:00 74.9 40.0 49.0 74.9 74.9 8.5 13.3 10.3 114.7 108.0 0.00 0.0000000 79.0
2020-09-16 20:10:00 74.3 40.6 48.9 74.3 74.3 7.2 10.3 8.6 116.6 114.7 0.00 0.0000000 78.9
2020-09-16 20:15:00 73.9 40.6 48.5 73.9 73.9 8.8 9.7 8.1 126.3 113.3 0.00 0.0000000 78.9
2020-09-16 20:20:00 73.7 41.0 48.6 73.7 73.7 8.1 8.8 8.1 112.0 115.6 0.00 0.0000000 78.9
2020-09-16 20:25:00 73.4 40.7 48.1 73.4 73.4 7.8 9.7 8.4 107.3 113.2 0.00 0.0000000 78.8
2020-09-16 20:30:00 73.4 40.4 47.9 73.4 73.4 7.8 10.1 8.5 109.7 113.6 0.00 0.0000000 78.8
2020-09-16 20:35:00 73.0 41.4 48.1 73.0 73.0 5.5 9.4 7.2 122.3 114.8 0.00 0.0000000 78.7
2020-09-16 20:40:00 72.1 43.0 48.4 72.1 72.1 5.1 6.5 5.4 121.6 115.7 0.00 0.0000000 78.7
2020-09-16 20:45:00 71.4 44.3 48.5 71.4 71.4 4.9 5.3 4.8 129.6 125.6 0.00 0.0000000 78.7
2020-09-16 20:50:00 70.9 43.5 47.6 70.9 70.9 3.5 6.7 4.4 192.0 160.0 0.00 0.0000000 78.7
2020-09-16 20:55:00 71.7 41.7 47.2 71.7 71.7 4.0 4.0 3.3 204.9 212.6 0.00 0.0000000 78.6
2020-09-16 21:00:00 72.4 40.3 46.9 72.4 72.4 1.5 4.0 2.1 197.9 205.7 0.00 0.0000000 78.5
2020-09-16 21:05:00 72.4 39.7 46.6 72.4 72.4 1.0 1.9 1.2 104.4 156.2 0.00 0.0000000 78.5
2020-09-16 21:10:00 72.6 39.3 46.5 72.6 72.6 1.5 1.7 0.7 167.0 146.6 0.00 0.0000000 78.5
2020-09-16 21:15:00 72.6 39.2 46.4 72.6 72.6 0.8 1.5 1.1 156.6 145.9 0.00 0.0000000 78.4
2020-09-16 21:20:00 72.5 39.5 46.5 72.5 72.5 2.6 2.6 1.5 240.0 207.8 0.00 0.0000000 78.4
2020-09-16 21:25:00 71.9 40.1 46.4 71.9 71.9 1.7 2.6 2.1 303.1 258.9 0.00 0.0000000 78.4
2020-09-16 21:30:00 70.4 42.0 46.3 70.4 70.4 3.0 3.0 2.1 261.8 289.4 0.00 0.0000000 78.3
2020-09-16 21:35:00 70.4 41.3 45.8 70.4 70.4 4.4 4.4 3.9 256.9 256.6 0.00 0.0000000 78.3
2020-09-16 21:40:00 69.0 44.3 46.3 69.0 69.0 4.6 4.7 4.4 270.5 256.7 0.00 0.0000000 78.2
2020-09-16 21:45:00 69.0 45.6 47.1 69.0 69.0 6.3 6.3 5.2 300.2 283.5 0.00 0.0000000 78.2
2020-09-16 21:50:00 69.9 43.3 46.5 69.9 69.9 9.0 9.4 7.1 287.1 289.0 0.00 0.0000000 78.1
2020-09-16 21:55:00 70.9 41.2 46.1 70.9 70.9 10.5 11.3 9.2 294.3 292.3 0.00 0.0000000 78.0
2020-09-16 22:00:00 71.7 40.9 46.7 71.7 71.7 6.0 9.6 7.4 296.1 281.6 0.00 0.0000000 78.0
2020-09-16 22:05:00 71.7 40.8 46.6 71.7 71.7 6.0 7.1 6.3 287.2 287.1 0.00 0.0000000 78.0
2020-09-16 22:10:00 71.9 41.7 47.4 71.9 71.9 5.6 6.7 5.8 295.3 289.1 0.00 0.0000000 77.9
2020-09-16 22:15:00 72.4 40.7 47.2 72.4 72.4 5.3 6.2 5.7 293.1 290.5 0.00 0.0000000 77.8
2020-09-16 22:20:00 72.5 40.1 46.9 72.5 72.5 4.7 6.3 5.2 295.9 289.4 0.00 0.0000000 77.8
2020-09-16 22:25:00 72.4 40.7 47.1 72.4 72.4 5.1 5.5 4.7 290.8 292.2 0.00 0.0000000 77.8
2020-09-16 22:30:00 72.4 40.7 47.1 72.4 72.4 4.2 5.8 4.8 294.7 301.5 0.00 0.0000000 77.7
2020-09-16 22:35:00 72.1 40.0 46.4 72.1 72.1 3.5 4.4 3.6 347.6 321.4 0.00 0.0000000 77.6
2020-09-16 22:40:00 71.9 41.1 47.0 71.9 71.9 4.9 4.9 3.2 65.2 42.0 0.00 0.0000000 77.6
2020-09-16 22:45:00 69.6 45.9 47.9 69.6 69.6 3.3 4.6 3.5 83.9 79.6 0.00 0.0000000 77.5
2020-09-16 22:50:00 68.1 51.5 49.5 68.1 68.1 4.0 5.6 4.1 121.5 98.4 0.00 0.0000000 77.5
2020-09-16 22:55:00 65.7 56.4 49.8 65.7 65.7 4.6 4.6 3.8 115.6 118.7 0.00 0.0000000 77.5
2020-09-16 23:00:00 66.2 54.3 49.3 66.2 66.2 3.1 4.6 3.5 94.3 102.5 0.00 0.0000000 77.4
2020-09-16 23:05:00 67.0 53.6 49.6 67.0 67.0 3.1 3.8 3.2 90.9 88.2 0.00 0.0000000 77.4
2020-09-16 23:10:00 65.7 55.2 49.2 65.7 65.7 4.6 5.3 4.4 133.2 121.5 0.00 0.0000000 77.3
2020-09-16 23:15:00 66.5 53.1 48.9 66.5 66.5 3.5 6.0 4.9 101.8 115.0 0.00 0.0000000 77.3
2020-09-16 23:20:00 66.0 52.9 48.3 66.0 66.0 1.0 3.3 2.0 199.6 139.2 0.00 0.0000000 77.2
2020-09-16 23:25:00 65.7 53.0 48.1 65.7 65.7 0.8 1.0 0.3 111.1 6.3 0.00 0.0000000 77.2
2020-09-16 23:30:00 66.8 49.7 47.4 66.8 66.8 1.0 1.7 0.7 71.5 84.1 0.00 0.0000000 77.1
2020-09-16 23:35:00 68.1 46.9 47.0 68.1 68.1 0.0 1.9 1.2 43.3 80.7 0.00 0.0000000 77.1
2020-09-16 23:40:00 68.3 47.5 47.6 68.3 68.3 1.3 1.9 0.7 246.9 249.5 0.00 0.0000000 77.1
2020-09-16 23:45:00 68.3 47.9 47.8 68.3 68.3 0.0 1.2 0.3 235.5 241.5 0.00 0.0000000 77.0
2020-09-16 23:50:00 68.1 47.8 47.5 68.1 68.1 0.0 1.3 0.4 148.8 157.7 0.00 0.0000000 77.0
2020-09-16 23:55:00 67.6 49.5 48.0 67.6 67.6 1.3 2.2 1.1 280.4 220.6 0.00 0.0000000 76.9
2020-09-17 00:00:00 67.4 48.0 47.0 67.4 67.4 1.5 1.7 1.5 323.0 294.8 0.00 0.0000000 76.9

Data is courtesy of the NM Climate Center. DO NOT USE IN LEGAL PROCEEDINGS.